Dreyer, Texas
Current Conditions -  °F | °C
As of 3:35 PM on Friday 31 Oct 2014 (Local Time) from K3T5 Reporting Station
Clear Clear  
Wind Chill: 77°   Ceiling: Unl
Heat Index: 77°   Visibility: 10mi
Dew Point: 42°   Wind: 16mph
Humidity: 29%   Direction: 340°NNW
Pressure: 30.17"   Gusts: 21mph
Location:  29.4258°N, 97.1461°W
Report Text: K3T5 312035Z AUTO 34014G18KT 10SM CLR 25/06 A3017 RMK AO2 T02480057
Loading
Personal Weather Stations






























Interactive Weather Map
Tropical Storm Tracking
New forecast layout! Learn more

10-Day Weather Forecast

Advertisements
Track Severe Weather on mobile